sensor_id;sensor_type;location;lat;lon;timestamp;P1;durP1;ratioP1;P2;durP2;ratioP2
10246;SDS011;5168;47.854;7.944;2022-11-21T00:00:40;2.57;;;1.97;;
10246;SDS011;5168;47.854;7.944;2022-11-21T00:03:07;3.40;;;2.13;;
10246;SDS011;5168;47.854;7.944;2022-11-21T00:05:37;2.90;;;1.90;;
10246;SDS011;5168;47.854;7.944;2022-11-21T00:08:04;2.70;;;2.30;;
10246;SDS011;5168;47.854;7.944;2022-11-21T00:10:30;2.00;;;1.80;;
10246;SDS011;5168;47.854;7.944;2022-11-21T00:12:56;2.73;;;2.17;;
10246;SDS011;5168;47.854;7.944;2022-11-21T00:15:23;4.03;;;2.20;;
10246;SDS011;5168;47.854;7.944;2022-11-21T00:17:50;5.60;;;2.20;;
10246;SDS011;5168;47.854;7.944;2022-11-21T00:20:16;4.97;;;2.80;;
10246;SDS011;5168;47.854;7.944;2022-11-21T00:22:42;8.83;;;2.30;;
10246;SDS011;5168;47.854;7.944;2022-11-21T00:25:08;6.83;;;2.67;;
10246;SDS011;5168;47.854;7.944;2022-11-21T00:27:34;6.07;;;2.40;;
10246;SDS011;5168;47.854;7.944;2022-11-21T00:30:00;4.80;;;2.60;;
10246;SDS011;5168;47.854;7.944;2022-11-21T00:32:25;4.70;;;2.57;;
10246;SDS011;5168;47.854;7.944;2022-11-21T00:34:51;5.70;;;2.67;;
10246;SDS011;5168;47.854;7.944;2022-11-21T00:37:17;3.17;;;2.33;;
10246;SDS011;5168;47.854;7.944;2022-11-21T00:39:43;3.07;;;2.50;;
10246;SDS011;5168;47.854;7.944;2022-11-21T00:42:09;5.57;;;2.20;;
10246;SDS011;5168;47.854;7.944;2022-11-21T00:44:35;6.03;;;2.50;;
10246;SDS011;5168;47.854;7.944;2022-11-21T00:47:01;4.63;;;3.03;;
10246;SDS011;5168;47.854;7.944;2022-11-21T00:49:27;2.60;;;2.40;;
10246;SDS011;5168;47.854;7.944;2022-11-21T00:51:52;4.93;;;2.40;;
10246;SDS011;5168;47.854;7.944;2022-11-21T00:54:18;4.70;;;2.50;;
10246;SDS011;5168;47.854;7.944;2022-11-21T00:56:44;4.83;;;2.80;;
10246;SDS011;5168;47.854;7.944;2022-11-21T00:59:10;3.67;;;2.20;;
10246;SDS011;5168;47.854;7.944;2022-11-21T01:01:36;4.70;;;2.50;;
10246;SDS011;5168;47.854;7.944;2022-11-21T01:04:01;3.80;;;2.10;;
10246;SDS011;5168;47.854;7.944;2022-11-21T01:06:27;6.87;;;2.90;;
10246;SDS011;5168;47.854;7.944;2022-11-21T01:08:53;13.33;;;3.00;;
10246;SDS011;5168;47.854;7.944;2022-11-21T01:11:19;6.30;;;3.03;;
10246;SDS011;5168;47.854;7.944;2022-11-21T01:13:46;5.40;;;2.40;;
10246;SDS011;5168;47.854;7.944;2022-11-21T01:16:13;2.50;;;2.30;;
10246;SDS011;5168;47.854;7.944;2022-11-21T01:18:40;6.80;;;2.60;;
10246;SDS011;5168;47.854;7.944;2022-11-21T01:21:28;3.60;;;2.23;;
10246;SDS011;5168;47.854;7.944;2022-11-21T01:23:53;4.97;;;2.60;;
10246;SDS011;5168;47.854;7.944;2022-11-21T01:26:20;2.87;;;2.00;;
10246;SDS011;5168;47.854;7.944;2022-11-21T01:28:47;3.27;;;2.00;;
10246;SDS011;5168;47.854;7.944;2022-11-21T01:31:16;3.10;;;1.93;;
10246;SDS011;5168;47.854;7.944;2022-11-21T01:33:43;2.80;;;2.00;;
10246;SDS011;5168;47.854;7.944;2022-11-21T01:36:13;1.83;;;1.73;;
10246;SDS011;5168;47.854;7.944;2022-11-21T01:38:44;4.57;;;1.90;;
10246;SDS011;5168;47.854;7.944;2022-11-21T01:41:12;1.97;;;1.83;;
10246;SDS011;5168;47.854;7.944;2022-11-21T01:43:39;1.90;;;1.80;;
10246;SDS011;5168;47.854;7.944;2022-11-21T01:46:12;4.70;;;2.27;;
10246;SDS011;5168;47.854;7.944;2022-11-21T01:53:46;4.73;;;1.73;;
10246;SDS011;5168;47.854;7.944;2022-11-21T01:56:16;1.80;;;1.70;;
10246;SDS011;5168;47.854;7.944;2022-11-21T01:58:42;2.27;;;2.00;;
10246;SDS011;5168;47.854;7.944;2022-11-21T02:01:09;5.63;;;2.17;;
10246;SDS011;5168;47.854;7.944;2022-11-21T02:03:35;4.83;;;2.20;;
10246;SDS011;5168;47.854;7.944;2022-11-21T02:06:02;6.30;;;2.30;;
10246;SDS011;5168;47.854;7.944;2022-11-21T02:08:30;2.20;;;1.90;;
10246;SDS011;5168;47.854;7.944;2022-11-21T02:13:34;2.10;;;2.00;;
10246;SDS011;5168;47.854;7.944;2022-11-21T02:16:01;2.53;;;1.70;;
10246;SDS011;5168;47.854;7.944;2022-11-21T02:18:27;1.83;;;1.63;;
10246;SDS011;5168;47.854;7.944;2022-11-21T02:20:56;1.83;;;1.73;;
10246;SDS011;5168;47.854;7.944;2022-11-21T02:23:30;5.27;;;2.20;;
10246;SDS011;5168;47.854;7.944;2022-11-21T02:26:14;4.03;;;1.70;;
10246;SDS011;5168;47.854;7.944;2022-11-21T02:28:40;2.90;;;2.00;;
10246;SDS011;5168;47.854;7.944;2022-11-21T02:31:06;2.80;;;1.90;;
10246;SDS011;5168;47.854;7.944;2022-11-21T02:33:32;2.87;;;1.90;;
10246;SDS011;5168;47.854;7.944;2022-11-21T02:35:59;3.17;;;1.87;;
10246;SDS011;5168;47.854;7.944;2022-11-21T02:38:35;2.43;;;1.80;;
10246;SDS011;5168;47.854;7.944;2022-11-21T02:41:06;4.30;;;1.80;;
10246;SDS011;5168;47.854;7.944;2022-11-21T02:43:40;2.20;;;2.00;;
10246;SDS011;5168;47.854;7.944;2022-11-21T02:46:09;2.53;;;1.90;;
10246;SDS011;5168;47.854;7.944;2022-11-21T02:48:35;2.33;;;1.80;;
10246;SDS011;5168;47.854;7.944;2022-11-21T02:51:02;2.13;;;1.93;;
10246;SDS011;5168;47.854;7.944;2022-11-21T02:53:28;3.37;;;2.00;;
10246;SDS011;5168;47.854;7.944;2022-11-21T02:55:54;3.70;;;2.13;;
10246;SDS011;5168;47.854;7.944;2022-11-21T02:58:20;7.60;;;2.20;;
10246;SDS011;5168;47.854;7.944;2022-11-21T03:00:46;3.90;;;2.10;;
10246;SDS011;5168;47.854;7.944;2022-11-21T03:03:12;2.73;;;1.97;;
10246;SDS011;5168;47.854;7.944;2022-11-21T03:05:38;2.03;;;1.70;;
10246;SDS011;5168;47.854;7.944;2022-11-21T03:08:04;2.20;;;2.00;;
10246;SDS011;5168;47.854;7.944;2022-11-21T03:10:30;2.90;;;1.80;;
10246;SDS011;5168;47.854;7.944;2022-11-21T03:12:56;3.00;;;2.10;;
10246;SDS011;5168;47.854;7.944;2022-11-21T03:15:25;2.10;;;1.90;;
10246;SDS011;5168;47.854;7.944;2022-11-21T03:17:52;3.90;;;2.20;;
10246;SDS011;5168;47.854;7.944;2022-11-21T03:20:19;3.90;;;2.50;;
10246;SDS011;5168;47.854;7.944;2022-11-21T03:22:44;3.57;;;2.07;;
10246;SDS011;5168;47.854;7.944;2022-11-21T03:25:10;4.93;;;2.13;;
10246;SDS011;5168;47.854;7.944;2022-11-21T03:27:36;2.20;;;1.90;;
10246;SDS011;5168;47.854;7.944;2022-11-21T03:30:02;2.97;;;2.23;;
10246;SDS011;5168;47.854;7.944;2022-11-21T03:32:29;4.90;;;2.27;;
10246;SDS011;5168;47.854;7.944;2022-11-21T03:34:54;3.40;;;2.30;;
10246;SDS011;5168;47.854;7.944;2022-11-21T03:37:20;9.93;;;2.40;;
10246;SDS011;5168;47.854;7.944;2022-11-21T03:39:46;2.40;;;2.20;;
10246;SDS011;5168;47.854;7.944;2022-11-21T03:42:12;4.27;;;2.30;;
10246;SDS011;5168;47.854;7.944;2022-11-21T03:44:38;5.80;;;2.13;;
10246;SDS011;5168;47.854;7.944;2022-11-21T03:47:04;4.20;;;2.33;;
10246;SDS011;5168;47.854;7.944;2022-11-21T03:49:30;3.00;;;1.90;;
10246;SDS011;5168;47.854;7.944;2022-11-21T03:51:56;2.80;;;1.90;;
10246;SDS011;5168;47.854;7.944;2022-11-21T03:54:22;2.10;;;2.00;;
10246;SDS011;5168;47.854;7.944;2022-11-21T03:56:48;2.20;;;2.00;;
10246;SDS011;5168;47.854;7.944;2022-11-21T03:59:14;5.00;;;2.20;;
10246;SDS011;5168;47.854;7.944;2022-11-21T04:01:40;4.63;;;1.90;;
10246;SDS011;5168;47.854;7.944;2022-11-21T04:04:06;4.23;;;2.20;;
10246;SDS011;5168;47.854;7.944;2022-11-21T04:06:32;2.10;;;1.90;;
10246;SDS011;5168;47.854;7.944;2022-11-21T04:08:58;3.57;;;2.20;;
10246;SDS011;5168;47.854;7.944;2022-11-21T04:11:24;4.80;;;2.53;;
10246;SDS011;5168;47.854;7.944;2022-11-21T04:13:50;4.57;;;1.80;;
10246;SDS011;5168;47.854;7.944;2022-11-21T04:16:16;2.73;;;2.00;;
10246;SDS011;5168;47.854;7.944;2022-11-21T04:18:42;4.10;;;2.17;;
10246;SDS011;5168;47.854;7.944;2022-11-21T04:21:08;3.60;;;2.07;;
10246;SDS011;5168;47.854;7.944;2022-11-21T04:23:34;6.03;;;2.10;;
10246;SDS011;5168;47.854;7.944;2022-11-21T04:26:00;2.90;;;1.83;;
10246;SDS011;5168;47.854;7.944;2022-11-21T04:28:26;2.10;;;1.90;;
10246;SDS011;5168;47.854;7.944;2022-11-21T04:30:52;5.97;;;2.73;;
10246;SDS011;5168;47.854;7.944;2022-11-21T04:33:18;2.70;;;1.93;;
10246;SDS011;5168;47.854;7.944;2022-11-21T04:35:44;3.20;;;2.10;;
10246;SDS011;5168;47.854;7.944;2022-11-21T04:38:11;5.50;;;2.23;;
10246;SDS011;5168;47.854;7.944;2022-11-21T04:40:38;6.60;;;2.50;;
10246;SDS011;5168;47.854;7.944;2022-11-21T04:43:04;7.97;;;2.20;;
10246;SDS011;5168;47.854;7.944;2022-11-21T04:45:30;4.83;;;2.20;;
10246;SDS011;5168;47.854;7.944;2022-11-21T04:47:56;4.17;;;2.40;;
10246;SDS011;5168;47.854;7.944;2022-11-21T04:50:22;2.33;;;2.13;;
10246;SDS011;5168;47.854;7.944;2022-11-21T04:52:51;3.47;;;2.20;;
10246;SDS011;5168;47.854;7.944;2022-11-21T04:55:19;3.77;;;1.80;;
10246;SDS011;5168;47.854;7.944;2022-11-21T04:57:46;2.50;;;1.93;;
10246;SDS011;5168;47.854;7.944;2022-11-21T05:00:12;4.23;;;2.50;;
10246;SDS011;5168;47.854;7.944;2022-11-21T05:02:38;6.50;;;2.37;;
10246;SDS011;5168;47.854;7.944;2022-11-21T05:05:04;3.03;;;1.90;;
10246;SDS011;5168;47.854;7.944;2022-11-21T05:07:31;3.00;;;2.00;;
10246;SDS011;5168;47.854;7.944;2022-11-21T05:09:56;2.10;;;1.90;;
10246;SDS011;5168;47.854;7.944;2022-11-21T05:12:22;3.93;;;2.17;;
10246;SDS011;5168;47.854;7.944;2022-11-21T05:15:07;3.30;;;2.00;;
10246;SDS011;5168;47.854;7.944;2022-11-21T05:17:33;2.27;;;1.90;;
10246;SDS011;5168;47.854;7.944;2022-11-21T05:19:59;2.63;;;2.00;;
10246;SDS011;5168;47.854;7.944;2022-11-21T05:22:25;2.97;;;1.67;;
10246;SDS011;5168;47.854;7.944;2022-11-21T05:24:51;2.10;;;1.70;;
10246;SDS011;5168;47.854;7.944;2022-11-21T05:27:16;2.13;;;1.90;;
10246;SDS011;5168;47.854;7.944;2022-11-21T05:29:42;5.50;;;2.13;;
10246;SDS011;5168;47.854;7.944;2022-11-21T05:32:08;3.43;;;2.00;;
10246;SDS011;5168;47.854;7.944;2022-11-21T05:34:34;1.83;;;1.73;;
10246;SDS011;5168;47.854;7.944;2022-11-21T05:37:00;5.33;;;1.90;;
10246;SDS011;5168;47.854;7.944;2022-11-21T05:39:26;2.67;;;2.00;;
10246;SDS011;5168;47.854;7.944;2022-11-21T05:41:52;4.40;;;2.00;;
10246;SDS011;5168;47.854;7.944;2022-11-21T05:44:18;4.57;;;2.37;;
10246;SDS011;5168;47.854;7.944;2022-11-21T05:46:44;2.07;;;1.97;;
10246;SDS011;5168;47.854;7.944;2022-11-21T05:49:10;3.13;;;2.17;;
10246;SDS011;5168;47.854;7.944;2022-11-21T05:51:36;2.33;;;2.13;;
10246;SDS011;5168;47.854;7.944;2022-11-21T05:54:02;5.77;;;2.10;;
10246;SDS011;5168;47.854;7.944;2022-11-21T05:56:28;3.13;;;2.20;;
10246;SDS011;5168;47.854;7.944;2022-11-21T05:58:54;5.03;;;2.20;;
10246;SDS011;5168;47.854;7.944;2022-11-21T06:01:21;3.67;;;1.77;;
10246;SDS011;5168;47.854;7.944;2022-11-21T06:04:06;4.13;;;1.90;;
10246;SDS011;5168;47.854;7.944;2022-11-21T06:06:32;2.03;;;1.80;;
10246;SDS011;5168;47.854;7.944;2022-11-21T06:08:58;3.83;;;2.03;;
10246;SDS011;5168;47.854;7.944;2022-11-21T06:11:24;3.57;;;2.17;;
10246;SDS011;5168;47.854;7.944;2022-11-21T06:13:51;5.10;;;2.07;;
10246;SDS011;5168;47.854;7.944;2022-11-21T06:16:17;8.83;;;2.20;;
10246;SDS011;5168;47.854;7.944;2022-11-21T06:18:44;2.30;;;1.87;;
10246;SDS011;5168;47.854;7.944;2022-11-21T06:21:12;3.03;;;2.07;;
10246;SDS011;5168;47.854;7.944;2022-11-21T06:23:39;8.90;;;2.30;;
10246;SDS011;5168;47.854;7.944;2022-11-21T06:26:06;5.23;;;2.10;;
10246;SDS011;5168;47.854;7.944;2022-11-21T06:28:36;4.23;;;2.40;;
10246;SDS011;5168;47.854;7.944;2022-11-21T06:31:03;6.13;;;2.50;;
10246;SDS011;5168;47.854;7.944;2022-11-21T06:33:33;4.43;;;2.00;;
10246;SDS011;5168;47.854;7.944;2022-11-21T06:36:00;3.13;;;2.20;;
10246;SDS011;5168;47.854;7.944;2022-11-21T06:38:27;6.27;;;2.60;;
10246;SDS011;5168;47.854;7.944;2022-11-21T06:40:53;5.83;;;2.40;;
10246;SDS011;5168;47.854;7.944;2022-11-21T06:43:19;5.57;;;2.53;;
10246;SDS011;5168;47.854;7.944;2022-11-21T06:45:44;7.43;;;2.37;;
10246;SDS011;5168;47.854;7.944;2022-11-21T06:48:10;2.77;;;2.57;;
10246;SDS011;5168;47.854;7.944;2022-11-21T06:50:35;3.47;;;2.43;;
10246;SDS011;5168;47.854;7.944;2022-11-21T06:53:02;6.07;;;3.07;;
10246;SDS011;5168;47.854;7.944;2022-11-21T06:55:29;7.17;;;2.93;;
10246;SDS011;5168;47.854;7.944;2022-11-21T06:57:56;6.87;;;2.57;;
10246;SDS011;5168;47.854;7.944;2022-11-21T07:00:23;4.73;;;2.33;;
10246;SDS011;5168;47.854;7.944;2022-11-21T07:02:49;6.03;;;2.27;;
10246;SDS011;5168;47.854;7.944;2022-11-21T07:05:15;5.03;;;2.40;;
10246;SDS011;5168;47.854;7.944;2022-11-21T07:07:41;8.90;;;2.53;;
10246;SDS011;5168;47.854;7.944;2022-11-21T07:10:07;4.53;;;2.40;;
10246;SDS011;5168;47.854;7.944;2022-11-21T07:12:33;7.07;;;2.37;;
10246;SDS011;5168;47.854;7.944;2022-11-21T07:15:18;4.63;;;3.10;;
10246;SDS011;5168;47.854;7.944;2022-11-21T07:17:44;5.77;;;2.57;;
10246;SDS011;5168;47.854;7.944;2022-11-21T07:20:10;3.27;;;2.30;;
10246;SDS011;5168;47.854;7.944;2022-11-21T07:22:36;5.80;;;2.30;;
10246;SDS011;5168;47.854;7.944;2022-11-21T07:25:02;3.97;;;2.67;;
10246;SDS011;5168;47.854;7.944;2022-11-21T07:27:28;5.63;;;2.50;;
10246;SDS011;5168;47.854;7.944;2022-11-21T07:29:54;6.90;;;2.43;;
10246;SDS011;5168;47.854;7.944;2022-11-21T07:32:25;4.37;;;2.10;;
10246;SDS011;5168;47.854;7.944;2022-11-21T07:34:52;2.77;;;2.30;;
10246;SDS011;5168;47.854;7.944;2022-11-21T07:37:17;3.37;;;1.90;;
10246;SDS011;5168;47.854;7.944;2022-11-21T07:39:43;5.73;;;2.50;;
10246;SDS011;5168;47.854;7.944;2022-11-21T07:42:09;5.13;;;2.10;;
10246;SDS011;5168;47.854;7.944;2022-11-21T07:44:35;3.30;;;1.80;;
10246;SDS011;5168;47.854;7.944;2022-11-21T07:47:01;4.50;;;2.53;;
10246;SDS011;5168;47.854;7.944;2022-11-21T07:49:27;4.80;;;2.30;;
10246;SDS011;5168;47.854;7.944;2022-11-21T07:51:53;6.43;;;2.60;;
10246;SDS011;5168;47.854;7.944;2022-11-21T07:54:19;4.60;;;2.63;;
10246;SDS011;5168;47.854;7.944;2022-11-21T07:56:45;5.83;;;2.13;;
10246;SDS011;5168;47.854;7.944;2022-11-21T07:59:11;7.20;;;2.37;;
10246;SDS011;5168;47.854;7.944;2022-11-21T08:01:37;8.17;;;2.60;;
10246;SDS011;5168;47.854;7.944;2022-11-21T08:04:02;5.67;;;2.70;;
10246;SDS011;5168;47.854;7.944;2022-11-21T08:06:28;9.90;;;2.90;;
10246;SDS011;5168;47.854;7.944;2022-11-21T08:08:54;11.80;;;2.83;;
10246;SDS011;5168;47.854;7.944;2022-11-21T08:11:20;4.37;;;2.40;;
10246;SDS011;5168;47.854;7.944;2022-11-21T08:13:46;4.60;;;2.10;;
10246;SDS011;5168;47.854;7.944;2022-11-21T08:16:12;5.17;;;2.33;;
10246;SDS011;5168;47.854;7.944;2022-11-21T08:18:38;3.90;;;2.60;;
10246;SDS011;5168;47.854;7.944;2022-11-21T08:21:04;6.70;;;2.60;;
10246;SDS011;5168;47.854;7.944;2022-11-21T08:23:30;2.77;;;2.37;;
10246;SDS011;5168;47.854;7.944;2022-11-21T08:25:56;4.77;;;2.70;;
10246;SDS011;5168;47.854;7.944;2022-11-21T08:28:21;4.17;;;2.50;;
10246;SDS011;5168;47.854;7.944;2022-11-21T08:30:47;9.77;;;2.43;;
10246;SDS011;5168;47.854;7.944;2022-11-21T08:33:14;7.73;;;2.70;;
10246;SDS011;5168;47.854;7.944;2022-11-21T08:35:40;3.87;;;2.40;;
10246;SDS011;5168;47.854;7.944;2022-11-21T08:38:06;8.13;;;2.40;;
10246;SDS011;5168;47.854;7.944;2022-11-21T08:40:32;7.77;;;2.67;;
10246;SDS011;5168;47.854;7.944;2022-11-21T08:42:59;9.07;;;2.57;;
10246;SDS011;5168;47.854;7.944;2022-11-21T08:45:25;2.37;;;2.13;;
10246;SDS011;5168;47.854;7.944;2022-11-21T08:47:51;11.53;;;2.80;;
10246;SDS011;5168;47.854;7.944;2022-11-21T08:50:18;6.67;;;2.43;;
10246;SDS011;5168;47.854;7.944;2022-11-21T08:52:43;7.33;;;2.80;;
10246;SDS011;5168;47.854;7.944;2022-11-21T08:55:09;10.70;;;2.73;;
10246;SDS011;5168;47.854;7.944;2022-11-21T08:57:39;5.90;;;2.33;;
10246;SDS011;5168;47.854;7.944;2022-11-21T09:00:06;4.53;;;2.53;;
10246;SDS011;5168;47.854;7.944;2022-11-21T09:02:36;5.27;;;2.50;;
10246;SDS011;5168;47.854;7.944;2022-11-21T09:05:02;5.43;;;2.43;;
10246;SDS011;5168;47.854;7.944;2022-11-21T09:07:28;9.83;;;2.83;;
10246;SDS011;5168;47.854;7.944;2022-11-21T09:09:54;5.87;;;2.23;;
10246;SDS011;5168;47.854;7.944;2022-11-21T09:12:20;6.70;;;2.43;;
10246;SDS011;5168;47.854;7.944;2022-11-21T09:14:46;5.27;;;2.30;;
10246;SDS011;5168;47.854;7.944;2022-11-21T09:17:30;11.03;;;4.13;;
10246;SDS011;5168;47.854;7.944;2022-11-21T09:20:15;8.13;;;3.10;;
10246;SDS011;5168;47.854;7.944;2022-11-21T09:22:41;6.53;;;2.40;;
10246;SDS011;5168;47.854;7.944;2022-11-21T09:25:07;5.57;;;2.30;;
10246;SDS011;5168;47.854;7.944;2022-11-21T09:27:33;10.43;;;2.50;;
10246;SDS011;5168;47.854;7.944;2022-11-21T09:29:59;6.57;;;2.70;;
10246;SDS011;5168;47.854;7.944;2022-11-21T09:32:25;10.53;;;3.20;;
10246;SDS011;5168;47.854;7.944;2022-11-21T09:34:50;4.60;;;2.63;;
10246;SDS011;5168;47.854;7.944;2022-11-21T09:37:16;3.73;;;2.50;;
10246;SDS011;5168;47.854;7.944;2022-11-21T09:39:42;5.73;;;2.90;;
10246;SDS011;5168;47.854;7.944;2022-11-21T09:42:15;5.47;;;2.43;;
10246;SDS011;5168;47.854;7.944;2022-11-21T09:47:29;6.40;;;2.67;;
10246;SDS011;5168;47.854;7.944;2022-11-21T09:49:59;6.60;;;2.87;;
10246;SDS011;5168;47.854;7.944;2022-11-21T09:53:04;9.53;;;3.40;;
10246;SDS011;5168;47.854;7.944;2022-11-21T09:55:44;5.13;;;2.80;;
10246;SDS011;5168;47.854;7.944;2022-11-21T10:00:53;8.33;;;2.57;;
10246;SDS011;5168;47.854;7.944;2022-11-21T10:03:20;5.47;;;2.80;;
10246;SDS011;5168;47.854;7.944;2022-11-21T10:05:51;6.40;;;2.40;;
10246;SDS011;5168;47.854;7.944;2022-11-21T10:09:02;4.87;;;2.00;;
10246;SDS011;5168;47.854;7.944;2022-11-21T10:11:46;5.80;;;2.37;;
10246;SDS011;5168;47.854;7.944;2022-11-21T10:23:02;8.87;;;2.83;;
10246;SDS011;5168;47.854;7.944;2022-11-21T10:25:37;6.17;;;3.33;;
10246;SDS011;5168;47.854;7.944;2022-11-21T10:30:34;8.20;;;2.93;;
10246;SDS011;5168;47.854;7.944;2022-11-21T10:33:08;9.43;;;2.80;;
10246;SDS011;5168;47.854;7.944;2022-11-21T10:38:19;7.70;;;3.40;;
10246;SDS011;5168;47.854;7.944;2022-11-21T10:40:52;9.90;;;2.93;;
10246;SDS011;5168;47.854;7.944;2022-11-21T10:43:35;5.90;;;2.20;;
10246;SDS011;5168;47.854;7.944;2022-11-21T10:46:32;6.77;;;2.90;;
10246;SDS011;5168;47.854;7.944;2022-11-21T10:48:58;8.40;;;2.77;;
10246;SDS011;5168;47.854;7.944;2022-11-21T10:54:16;2.50;;;2.23;;
10246;SDS011;5168;47.854;7.944;2022-11-21T10:57:14;4.93;;;2.57;;
10246;SDS011;5168;47.854;7.944;2022-11-21T10:59:54;6.60;;;2.43;;
10246;SDS011;5168;47.854;7.944;2022-11-21T11:02:39;3.83;;;2.30;;
10246;SDS011;5168;47.854;7.944;2022-11-21T11:07:40;4.30;;;2.70;;
10246;SDS011;5168;47.854;7.944;2022-11-21T11:10:13;7.30;;;2.70;;
10246;SDS011;5168;47.854;7.944;2022-11-21T11:12:49;4.00;;;2.10;;
10246;SDS011;5168;47.854;7.944;2022-11-21T11:15:34;6.10;;;2.37;;
10246;SDS011;5168;47.854;7.944;2022-11-21T11:18:03;4.33;;;2.50;;
10246;SDS011;5168;47.854;7.944;2022-11-21T11:20:40;5.53;;;2.30;;
10246;SDS011;5168;47.854;7.944;2022-11-21T11:25:46;4.70;;;2.23;;
10246;SDS011;5168;47.854;7.944;2022-11-21T11:28:20;7.33;;;2.40;;
10246;SDS011;5168;47.854;7.944;2022-11-21T11:30:48;4.87;;;2.20;;
10246;SDS011;5168;47.854;7.944;2022-11-21T11:33:34;4.73;;;2.80;;
10246;SDS011;5168;47.854;7.944;2022-11-21T11:36:05;3.07;;;2.20;;
10246;SDS011;5168;47.854;7.944;2022-11-21T11:38:43;3.17;;;1.93;;
10246;SDS011;5168;47.854;7.944;2022-11-21T11:41:21;3.80;;;2.10;;
10246;SDS011;5168;47.854;7.944;2022-11-21T11:43:56;5.87;;;2.20;;
10246;SDS011;5168;47.854;7.944;2022-11-21T11:47:02;4.87;;;2.10;;
10246;SDS011;5168;47.854;7.944;2022-11-21T11:49:54;4.03;;;2.40;;
10246;SDS011;5168;47.854;7.944;2022-11-21T11:52:41;5.37;;;1.97;;
10246;SDS011;5168;47.854;7.944;2022-11-21T11:55:25;3.27;;;2.27;;
10246;SDS011;5168;47.854;7.944;2022-11-21T11:57:58;6.10;;;2.37;;
10246;SDS011;5168;47.854;7.944;2022-11-21T12:00:38;3.33;;;1.87;;
10246;SDS011;5168;47.854;7.944;2022-11-21T12:03:18;2.47;;;1.97;;
10246;SDS011;5168;47.854;7.944;2022-11-21T12:05:50;3.70;;;1.90;;
10246;SDS011;5168;47.854;7.944;2022-11-21T12:08:32;1.83;;;1.70;;
10246;SDS011;5168;47.854;7.944;2022-11-21T12:11:12;3.73;;;1.83;;
10246;SDS011;5168;47.854;7.944;2022-11-21T12:17:37;4.43;;;1.57;;
10246;SDS011;5168;47.854;7.944;2022-11-21T12:20:24;3.20;;;1.73;;
10246;SDS011;5168;47.854;7.944;2022-11-21T12:22:54;2.97;;;2.00;;
10246;SDS011;5168;47.854;7.944;2022-11-21T12:25:23;2.20;;;1.70;;
10246;SDS011;5168;47.854;7.944;2022-11-21T12:27:54;3.90;;;2.30;;
10246;SDS011;5168;47.854;7.944;2022-11-21T12:35:38;2.90;;;1.60;;
10246;SDS011;5168;47.854;7.944;2022-11-21T12:52:27;5.43;;;1.90;;
10246;SDS011;5168;47.854;7.944;2022-11-21T13:00:22;3.73;;;2.00;;
10246;SDS011;5168;47.854;7.944;2022-11-21T13:05:44;2.90;;;1.70;;
10246;SDS011;5168;47.854;7.944;2022-11-21T13:08:14;4.47;;;1.80;;
10246;SDS011;5168;47.854;7.944;2022-11-21T13:10:52;3.17;;;1.80;;
10246;SDS011;5168;47.854;7.944;2022-11-21T13:13:46;3.50;;;2.10;;
10246;SDS011;5168;47.854;7.944;2022-11-21T13:16:17;2.13;;;1.60;;
10246;SDS011;5168;47.854;7.944;2022-11-21T13:19:01;2.67;;;1.70;;
10246;SDS011;5168;47.854;7.944;2022-11-21T13:21:40;5.27;;;2.00;;
10246;SDS011;5168;47.854;7.944;2022-11-21T13:24:08;2.27;;;1.77;;
10246;SDS011;5168;47.854;7.944;2022-11-21T13:29:09;3.63;;;2.40;;
10246;SDS011;5168;47.854;7.944;2022-11-21T13:31:36;3.40;;;2.03;;
10246;SDS011;5168;47.854;7.944;2022-11-21T13:34:02;2.57;;;1.70;;
10246;SDS011;5168;47.854;7.944;2022-11-21T13:46:58;3.37;;;1.63;;
10246;SDS011;5168;47.854;7.944;2022-11-21T13:52:29;3.43;;;1.90;;
10246;SDS011;5168;47.854;7.944;2022-11-21T13:55:24;2.20;;;1.83;;
10246;SDS011;5168;47.854;7.944;2022-11-21T13:57:57;3.00;;;1.77;;
10246;SDS011;5168;47.854;7.944;2022-11-21T14:03:36;3.23;;;2.10;;
10246;SDS011;5168;47.854;7.944;2022-11-21T14:06:14;2.83;;;2.00;;
10246;SDS011;5168;47.854;7.944;2022-11-21T14:19:38;2.53;;;1.80;;
10246;SDS011;5168;47.854;7.944;2022-11-21T14:22:12;2.63;;;2.07;;
10246;SDS011;5168;47.854;7.944;2022-11-21T14:24:58;2.43;;;2.00;;
10246;SDS011;5168;47.854;7.944;2022-11-21T14:27:28;2.27;;;2.00;;
10246;SDS011;5168;47.854;7.944;2022-11-21T14:29:57;3.90;;;2.03;;
10246;SDS011;5168;47.854;7.944;2022-11-21T14:32:26;1.90;;;1.80;;
10246;SDS011;5168;47.854;7.944;2022-11-21T14:35:05;3.20;;;1.93;;
10246;SDS011;5168;47.854;7.944;2022-11-21T14:37:39;2.40;;;2.03;;
10246;SDS011;5168;47.854;7.944;2022-11-21T14:40:09;7.53;;;2.10;;
10246;SDS011;5168;47.854;7.944;2022-11-21T14:42:43;2.80;;;2.20;;
10246;SDS011;5168;47.854;7.944;2022-11-21T14:45:19;2.60;;;1.80;;
10246;SDS011;5168;47.854;7.944;2022-11-21T14:47:47;2.77;;;1.90;;
10246;SDS011;5168;47.854;7.944;2022-11-21T14:50:21;1.80;;;1.70;;
10246;SDS011;5168;47.854;7.944;2022-11-21T14:52:47;3.00;;;2.00;;
10246;SDS011;5168;47.854;7.944;2022-11-21T14:55:21;2.87;;;1.90;;
10246;SDS011;5168;47.854;7.944;2022-11-21T14:57:49;2.60;;;1.97;;
10246;SDS011;5168;47.854;7.944;2022-11-21T15:00:17;2.30;;;2.00;;
10246;SDS011;5168;47.854;7.944;2022-11-21T15:02:45;4.07;;;2.17;;
10246;SDS011;5168;47.854;7.944;2022-11-21T15:05:11;3.00;;;1.83;;
10246;SDS011;5168;47.854;7.944;2022-11-21T15:07:42;3.57;;;2.03;;
10246;SDS011;5168;47.854;7.944;2022-11-21T15:10:12;2.77;;;2.03;;
10246;SDS011;5168;47.854;7.944;2022-11-21T15:15:22;2.30;;;1.83;;
10246;SDS011;5168;47.854;7.944;2022-11-21T15:17:57;2.17;;;1.83;;
10246;SDS011;5168;47.854;7.944;2022-11-21T15:20:26;2.77;;;2.20;;
10246;SDS011;5168;47.854;7.944;2022-11-21T15:22:56;3.43;;;2.20;;
10246;SDS011;5168;47.854;7.944;2022-11-21T15:25:30;2.37;;;1.90;;
10246;SDS011;5168;47.854;7.944;2022-11-21T15:28:12;3.83;;;2.10;;
10246;SDS011;5168;47.854;7.944;2022-11-21T15:30:41;5.40;;;2.00;;
10246;SDS011;5168;47.854;7.944;2022-11-21T15:33:08;2.37;;;2.17;;
10246;SDS011;5168;47.854;7.944;2022-11-21T15:35:56;2.63;;;2.20;;
10246;SDS011;5168;47.854;7.944;2022-11-21T15:46:28;3.23;;;2.03;;
10246;SDS011;5168;47.854;7.944;2022-11-21T15:49:02;6.60;;;3.93;;
10246;SDS011;5168;47.854;7.944;2022-11-21T15:51:43;15.67;;;8.10;;
10246;SDS011;5168;47.854;7.944;2022-11-21T15:54:13;4.73;;;2.60;;
10246;SDS011;5168;47.854;7.944;2022-11-21T15:56:40;4.83;;;2.40;;
10246;SDS011;5168;47.854;7.944;2022-11-21T15:59:06;3.10;;;2.40;;
10246;SDS011;5168;47.854;7.944;2022-11-21T16:01:33;5.60;;;3.80;;
10246;SDS011;5168;47.854;7.944;2022-11-21T16:03:59;20.10;;;9.57;;
10246;SDS011;5168;47.854;7.944;2022-11-21T16:06:27;10.77;;;6.83;;
10246;SDS011;5168;47.854;7.944;2022-11-21T16:08:53;7.43;;;4.60;;
10246;SDS011;5168;47.854;7.944;2022-11-21T16:11:26;5.23;;;4.17;;
10246;SDS011;5168;47.854;7.944;2022-11-21T16:13:56;5.77;;;4.10;;
10246;SDS011;5168;47.854;7.944;2022-11-21T16:16:24;4.10;;;3.23;;
10246;SDS011;5168;47.854;7.944;2022-11-21T16:18:51;3.50;;;3.10;;
10246;SDS011;5168;47.854;7.944;2022-11-21T16:21:18;3.97;;;3.17;;
10246;SDS011;5168;47.854;7.944;2022-11-21T16:23:43;4.17;;;2.60;;
10246;SDS011;5168;47.854;7.944;2022-11-21T16:26:10;3.57;;;2.50;;
10246;SDS011;5168;47.854;7.944;2022-11-21T16:28:36;2.93;;;2.40;;
10246;SDS011;5168;47.854;7.944;2022-11-21T16:31:02;3.07;;;2.20;;
10246;SDS011;5168;47.854;7.944;2022-11-21T16:33:28;2.27;;;2.07;;
10246;SDS011;5168;47.854;7.944;2022-11-21T16:35:55;3.60;;;2.03;;
10246;SDS011;5168;47.854;7.944;2022-11-21T16:38:21;2.80;;;1.90;;
10246;SDS011;5168;47.854;7.944;2022-11-21T16:40:57;2.07;;;1.80;;
10246;SDS011;5168;47.854;7.944;2022-11-21T16:43:25;2.00;;;1.90;;
10246;SDS011;5168;47.854;7.944;2022-11-21T16:45:52;3.00;;;2.40;;
10246;SDS011;5168;47.854;7.944;2022-11-21T16:48:18;3.30;;;2.17;;
10246;SDS011;5168;47.854;7.944;2022-11-21T16:50:44;2.77;;;2.30;;
10246;SDS011;5168;47.854;7.944;2022-11-21T16:53:11;4.67;;;2.70;;
10246;SDS011;5168;47.854;7.944;2022-11-21T16:55:37;3.93;;;2.53;;
10246;SDS011;5168;47.854;7.944;2022-11-21T16:58:02;4.10;;;2.37;;
10246;SDS011;5168;47.854;7.944;2022-11-21T17:00:28;2.60;;;2.40;;